Time;durP1;ratioP1;P1;durP2;ratioP2;P2;SDS_P1;SDS_P2;PMS_P1;PMS_P2;Temp;Humidity;BMP_temperature;BMP_pressure;BME280_temperature;BME280_humidity;BME280_pressure;Samples;Min_cycle;Max_cycle;Signal;HPM_P1;HPM_P2
2021/04/10 04:12:24;;;;;;;1.00;1.00;;;8.30;96.30;;;;;;5027596;23;20237;-78
2021/04/10 04:14:51;;;;;;;0.70;0.70;;;;;;;;;;4941197;29;20206;-80
2021/04/10 04:17:18;;;;;;;0.90;0.90;;;;;;;;;;4941480;29;20390;-78
2021/04/10 04:19:45;;;;;;;1.03;1.03;;;8.50;95.90;;;;;;4941065;29;20210;-78
2021/04/10 04:22:12;;;;;;;0.90;0.90;;;8.50;96.40;;;;;;4924629;29;20662;-81
2021/04/10 04:24:39;;;;;;;0.80;0.80;;;8.50;96.60;;;;;;4922378;29;20227;-79
2021/04/10 04:27:06;;;;;;;0.90;0.90;;;8.60;96.10;;;;;;4921709;29;20206;-78
2021/04/10 04:29:34;;;;;;;0.80;0.80;;;8.60;96.10;;;;;;4922430;29;20207;-81
2021/04/10 04:32:02;;;;;;;0.77;0.77;;;8.70;96.20;;;;;;4918702;29;20222;-79
2021/04/10 04:34:29;;;;;;;0.60;0.60;;;8.70;96.40;;;;;;4921699;29;20281;-81
2021/04/10 04:36:55;;;;;;;0.90;0.90;;;8.70;96.20;;;;;;4921974;29;20265;-80
2021/04/10 04:39:22;;;;;;;0.80;0.80;;;8.80;95.90;;;;;;4920981;29;20206;-79
2021/04/10 04:41:49;;;;;;;0.93;0.93;;;8.70;96.30;;;;;;4921448;29;20652;-78
2021/04/10 04:44:16;;;;;;;0.80;0.80;;;8.60;96.00;;;;;;4921787;29;20222;-80
2021/04/10 04:46:44;;;;;;;0.90;0.90;;;8.70;96.00;;;;;;4921665;29;20215;-80
2021/04/10 04:49:11;;;;;;;0.70;0.70;;;8.60;96.10;;;;;;4920835;29;20662;-80
2021/04/10 04:51:38;;;;;;;0.95;0.95;;;8.80;96.10;;;;;;4920010;29;20219;-80
2021/04/10 04:54:05;;;;;;;0.90;0.90;;;8.90;95.60;;;;;;4923164;29;20241;-77
2021/04/10 04:56:32;;;;;;;0.80;0.80;;;8.90;95.90;;;;;;4922724;29;20556;-77
2021/04/10 04:58:58;;;;;;;0.70;0.70;;;9.00;95.60;;;;;;4920724;29;20668;-81
2021/04/10 05:01:25;;;;;;;0.80;0.80;;;9.00;95.50;;;;;;4920753;29;20227;-79
2021/04/10 05:03:53;;;;;;;0.80;0.80;;;9.10;95.10;;;;;;4920425;29;20214;-79
2021/04/10 05:06:20;;;;;;;0.80;0.80;;;9.10;94.90;;;;;;4919199;29;20206;-78
2021/04/10 05:08:47;;;;;;;0.80;0.80;;;9.10;95.30;;;;;;4917644;29;20254;-79
2021/04/10 05:11:15;;;;;;;0.93;0.93;;;9.20;95.50;;;;;;4919543;29;20294;-79
2021/04/10 05:13:41;;;;;;;0.80;0.80;;;9.10;95.90;;;;;;4920476;29;20218;-81
2021/04/10 05:16:08;;;;;;;0.70;0.70;;;9.20;95.20;;;;;;4921177;29;20214;-78
2021/04/10 05:18:35;;;;;;;0.87;0.87;;;9.10;95.30;;;;;;4923033;29;20207;-79
2021/04/10 05:21:03;;;;;;;0.80;0.80;;;9.10;94.90;;;;;;4922456;29;20231;-80
2021/04/10 05:23:30;;;;;;;0.70;0.70;;;9.10;94.60;;;;;;4921301;29;20254;-81
2021/04/10 05:25:57;;;;;;;0.70;0.70;;;9.30;94.80;;;;;;4921493;29;20226;-78
2021/04/10 05:28:24;;;;;;;0.80;0.80;;;9.30;93.90;;;;;;4920366;29;20672;-80
2021/04/10 05:30:52;;;;;;;0.80;0.80;;;9.50;94.20;;;;;;4921574;29;20254;-81
2021/04/10 05:33:19;;;;;;;0.70;0.70;;;9.60;94.70;;;;;;4921107;29;20217;-82
2021/04/10 05:35:46;;;;;;;0.70;0.70;;;9.70;93.80;;;;;;4920226;29;20213;-80
2021/04/10 05:38:14;;;;;;;0.68;0.68;;;9.50;94.00;;;;;;4919843;29;20286;-79
2021/04/10 05:40:41;;;;;;;0.90;0.90;;;9.60;94.20;;;;;;4920606;29;20230;-78
2021/04/10 05:43:08;;;;;;;0.90;0.90;;;9.60;93.80;;;;;;4918529;29;20274;-78
2021/04/10 05:45:35;;;;;;;0.90;0.90;;;9.70;93.80;;;;;;4920625;29;20226;-79
2021/04/10 05:48:02;;;;;;;0.68;0.68;;;9.80;93.90;;;;;;4919754;29;20223;-79
2021/04/10 05:50:29;;;;;;;0.70;0.70;;;9.70;99.90;;;;;;4919533;29;20210;-80
2021/04/10 05:52:56;;;;;;;0.80;0.80;;;9.70;93.60;;;;;;4919801;29;20218;-77
2021/04/10 05:55:24;;;;;;;0.70;0.70;;;9.70;94.10;;;;;;4919903;29;20270;-80
2021/04/10 05:57:51;;;;;;;0.70;0.70;;;9.80;94.30;;;;;;4920051;29;20258;-78
2021/04/10 06:00:18;;;;;;;0.80;0.80;;;10.20;99.90;;;;;;4918523;29;20672;-80
2021/04/10 06:02:49;;;;;;;0.80;0.80;;;10.00;94.20;;;;;;4919598;29;20218;-78
2021/04/10 06:05:18;;;;;;;0.70;0.70;;;10.00;94.00;;;;;;4918718;29;20222;-80
2021/04/10 06:07:45;;;;;;;0.70;0.70;;;9.80;93.60;;;;;;4918998;29;20215;-79
2021/04/10 06:10:13;;;;;;;0.90;0.90;;;9.80;99.90;;;;;;4919268;29;20265;-80
2021/04/10 06:12:41;;;;;;;0.70;0.70;;;9.80;94.10;;;;;;4919479;29;20611;-79
2021/04/10 06:15:09;;;;;;;0.90;0.90;;;9.70;94.50;;;;;;4917308;29;20549;-80
2021/04/10 06:17:36;;;;;;;0.70;0.70;;;9.70;94.70;;;;;;4918368;29;20199;-78
2021/04/10 06:20:05;;;;;;;0.70;0.70;;;9.70;95.10;;;;;;4918975;29;20676;-78
2021/04/10 06:22:37;;;;;;;0.70;0.70;;;9.60;95.70;;;;;;4919213;29;20238;-77
2021/04/10 06:25:06;;;;;;;0.70;0.70;;;9.40;96.70;;;;;;4917036;29;20234;-78
2021/04/10 06:27:34;;;;;;;0.80;0.80;;;9.60;97.70;;;;;;4917613;29;20584;-80
2021/04/10 06:30:02;;;;;;;0.85;0.85;;;9.70;97.10;;;;;;4913725;29;20255;-82
2021/04/10 06:32:30;;;;;;;0.70;0.70;;;9.90;99.90;;;;;;4911796;29;20230;-81
2021/04/10 06:34:57;;;;;;;0.70;0.70;;;9.80;97.60;;;;;;4919891;29;20195;-81
2021/04/10 06:37:24;;;;;;;0.80;0.80;;;9.80;98.50;;;;;;4916331;29;20226;-81
2021/04/10 06:39:51;;;;;;;0.70;0.70;;;9.90;98.60;;;;;;4916552;29;20205;-81
2021/04/10 06:42:19;;;;;;;0.70;0.70;;;9.90;98.10;;;;;;4926260;29;20230;-80
2021/04/10 06:44:47;;;;;;;0.80;0.80;;;9.90;99.10;;;;;;4921324;29;20222;-82
2021/04/10 06:47:21;;;;;;;0.70;0.70;;;9.80;99.90;;;;;;4919521;29;20218;-81
2021/04/10 06:49:51;;;;;;;0.80;0.80;;;9.80;99.90;;;;;;4922429;29;20214;-81
2021/04/10 06:52:19;;;;;;;0.80;0.80;;;9.80;99.80;;;;;;4920317;29;20222;-81
2021/04/10 06:54:49;;;;;;;0.77;0.77;;;9.90;99.90;;;;;;4921038;29;20207;-82
2021/04/10 06:57:19;;;;;;;0.80;0.80;;;9.80;99.90;;;;;;4920694;29;20211;-81
2021/04/10 06:59:52;;;;;;;0.85;0.85;;;9.90;99.90;;;;;;4920738;29;20186;-82
2021/04/10 07:02:20;;;;;;;1.02;1.02;;;10.80;99.90;;;;;;4926278;29;20234;-79
2021/04/10 07:04:48;;;;;;;0.70;0.70;;;9.90;99.90;;;;;;4933713;29;20229;-79
2021/04/10 07:07:15;;;;;;;0.70;0.70;;;9.80;99.90;;;;;;4937268;29;20207;-78
2021/04/10 07:09:43;;;;;;;0.80;0.80;;;9.80;99.90;;;;;;4939693;29;20215;-79
2021/04/10 07:12:10;;;;;;;0.80;0.80;;;9.70;99.90;;;;;;4933828;29;20257;-79
2021/04/10 07:14:37;;;;;;;0.90;0.90;;;9.60;99.90;;;;;;4923829;29;20636;-78
2021/04/10 07:17:05;;;;;;;0.70;0.70;;;9.60;99.90;;;;;;4922819;29;20400;-80
2021/04/10 07:19:33;;;;;;;0.73;0.73;;;9.50;99.90;;;;;;4924572;29;20202;-79
2021/04/10 07:22:05;;;;;;;0.80;0.80;;;9.70;99.90;;;;;;4921775;29;20230;-79
2021/04/10 07:24:41;;;;;;;0.80;0.80;;;9.80;99.90;;;;;;4923443;29;20254;-79
2021/04/10 07:27:10;;;;;;;0.80;0.80;;;9.90;99.90;;;;;;4923561;29;20207;-79
2021/04/10 07:29:39;;;;;;;0.60;0.60;;;10.00;99.90;;;;;;4924624;29;20277;-81
2021/04/10 07:32:31;;;;;;;0.90;0.90;;;10.10;99.90;;;;;;4926013;29;20226;-81
2021/04/10 07:35:00;;;;;;;0.73;0.73;;;10.00;99.90;;;;;;4924294;29;20198;-81
2021/04/10 07:37:33;;;;;;;0.70;0.70;;;10.10;99.90;;;;;;4923304;29;20210;-80
2021/04/10 07:40:01;;;;;;;0.80;0.80;;;10.20;99.90;;;;;;4923572;29;20301;-79
2021/04/10 07:42:29;;;;;;;0.70;0.70;;;10.20;99.90;;;;;;4922857;29;20226;-79
2021/04/10 07:44:57;;;;;;;0.80;0.80;;;10.10;99.90;;;;;;4924286;29;20219;-80
2021/04/10 07:47:35;;;;;;;0.70;0.70;;;10.30;99.90;;;;;;4925419;29;20207;-80
2021/04/10 07:50:15;;;;;;;0.63;0.63;;;10.50;99.90;;;;;;4924004;29;20214;-81
2021/04/10 07:52:42;;;;;;;0.60;0.60;;;10.50;99.90;;;;;;4924977;29;20191;-80
2021/04/10 07:55:10;;;;;;;0.80;0.80;;;10.60;99.90;;;;;;4924908;29;20202;-81
2021/04/10 07:57:36;;;;;;;0.80;0.80;;;10.80;99.90;;;;;;4925111;29;20258;-80
2021/04/10 08:00:05;;;;;;;0.60;0.60;;;10.90;99.90;;;;;;4925587;29;20203;-82
2021/04/10 08:02:35;;;;;;;0.70;0.70;;;11.00;99.90;;;;;;4924614;29;20731;-80
2021/04/10 08:05:06;;;;;;;0.70;0.70;;;11.00;99.90;;;;;;4925644;29;20227;-80
2021/04/10 08:07:35;;;;;;;0.70;0.70;;;11.20;99.90;;;;;;4925612;29;20211;-81
2021/04/10 08:10:04;;;;;;;0.80;0.80;;;11.00;99.90;;;;;;4917927;29;20210;-76
2021/04/10 08:12:33;;;;;;;0.73;0.73;;;10.60;99.90;;;;;;4916090;29;20261;-69
2021/04/10 08:15:02;;;;;;;0.80;0.80;;;10.70;99.90;;;;;;4916142;29;20274;-69
2021/04/10 08:17:34;;;;;;;0.60;0.60;;;10.60;99.90;;;;;;4915306;29;20249;-72
2021/04/10 08:20:17;;;;;;;0.60;0.60;;;10.70;99.90;;;;;;4916111;29;20242;-72
2021/04/10 08:22:45;;;;;;;0.60;0.60;;;10.80;99.90;;;;;;4916667;29;20207;-71
2021/04/10 08:25:13;;;;;;;0.70;0.70;;;10.70;99.90;;;;;;4916211;29;20270;-70
2021/04/10 08:27:41;;;;;;;0.70;0.70;;;10.90;99.90;;;;;;4918017;29;20275;-70
2021/04/10 08:30:13;;;;;;;0.70;0.70;;;11.20;99.90;;;;;;4918288;29;20206;-71
2021/04/10 08:32:40;;;;;;;0.70;0.70;;;10.90;99.90;;;;;;4917986;29;20632;-71
2021/04/10 08:35:07;;;;;;;0.70;0.70;;;10.90;99.90;;;;;;4917799;29;20735;-70
2021/04/10 08:37:35;;;;;;;0.70;0.70;;;10.90;99.90;;;;;;4917732;29;20265;-69
2021/04/10 08:40:05;;;;;;;0.70;0.70;;;10.90;99.90;;;;;;4922420;29;20210;-77
2021/04/10 08:42:32;;;;;;;0.75;0.75;;;11.00;99.90;;;;;;4928887;29;20719;-78
2021/04/10 08:45:00;;;;;;;0.70;0.70;;;11.00;99.90;;;;;;4918796;29;20215;-80
2021/04/10 08:47:28;;;;;;;0.77;0.77;;;11.30;99.90;;;;;;4917417;29;20625;-76
2021/04/10 08:49:56;;;;;;;0.70;0.70;;;11.40;99.90;;;;;;4915175;29;20728;-79
2021/04/10 08:52:29;;;;;;;0.60;0.60;;;11.40;99.90;;;;;;4915019;29;20226;-77
2021/04/10 08:55:00;;;;;;;0.70;0.70;;;11.30;99.90;;;;;;4916511;29;20281;-81
2021/04/10 08:57:37;;;;;;;0.80;0.80;;;11.30;99.90;;;;;;4920672;29;20296;-79
2021/04/10 09:00:18;;;;;;;0.80;0.80;;;11.30;99.90;;;;;;4918023;29;20672;-77
2021/04/10 09:02:53;;;;;;;0.70;0.70;;;11.30;99.90;;;;;;4917038;29;20210;-73
2021/04/10 09:05:21;;;;;;;0.60;0.60;;;11.40;99.90;;;;;;4916700;29;20233;-77
2021/04/10 09:08:06;;;;;;;0.80;0.80;;;11.40;99.90;;;;;;4916415;29;20211;-77
2021/04/10 09:10:47;;;;;;;0.70;0.70;;;11.50;99.90;;;;;;4917171;29;20238;-77
2021/04/10 09:13:41;;;;;;;0.80;0.80;;;11.70;99.90;;;;;;4916183;29;20206;-78
2021/04/10 09:16:33;;;;;;;0.70;0.70;;;11.60;99.90;;;;;;4916234;29;20271;-77
2021/04/10 09:19:04;;;;;;;0.70;0.70;;;11.80;99.90;;;;;;4918339;29;20234;-79
2021/04/10 09:21:40;;;;;;;0.85;0.85;;;11.90;99.90;;;;;;4919659;29;20684;-80
2021/04/10 09:24:26;;;;;;;0.70;0.70;;;12.20;99.90;;;;;;4919618;29;20261;-79
2021/04/10 09:27:05;;;;;;;0.70;0.70;;;12.50;99.90;;;;;;4920345;29;20206;-78
2021/04/10 09:29:44;;;;;;;0.70;0.70;;;12.40;99.90;;;;;;4917289;29;20211;-79
2021/04/10 09:32:12;;;;;;;0.70;0.70;;;12.40;99.90;;;;;;4916379;29;20232;-79
2021/04/10 09:34:56;;;;;;;0.70;0.70;;;12.50;99.90;;;;;;4918151;29;20203;-80
2021/04/10 09:37:49;;;;;;;0.60;0.60;;;12.60;99.90;;;;;;4917817;29;20206;-80
2021/04/10 09:40:20;;;;;;;0.70;0.70;;;12.50;99.90;;;;;;4917904;29;20211;-78
2021/04/10 09:42:52;;;;;;;0.70;0.70;;;12.50;99.90;;;;;;4917828;29;20247;-78
2021/04/10 09:45:21;;;;;;;0.60;0.60;;;;;;;;;;4919108;29;20226;-79
2021/04/10 09:48:19;;;;;;;0.70;0.70;;;12.80;99.90;;;;;;4920425;29;20211;-77
2021/04/10 09:51:04;;;;;;;0.65;0.65;;;13.00;99.90;;;;;;4918100;29;20233;-78
2021/04/10 09:53:31;;;;;;;0.60;0.60;;;13.20;99.90;;;;;;4917124;29;20209;-78
2021/04/10 09:56:04;;;;;;;0.60;0.60;;;13.60;99.90;;;;;;4917199;29;20203;-77
2021/04/10 09:58:39;;;;;;;0.60;0.60;;;13.80;98.90;;;;;;4915948;29;20270;-77
2021/04/10 10:01:09;;;;;;;0.60;0.60;;;13.80;98.60;;;;;;4915604;29;20225;-77
2021/04/10 10:03:36;;;;;;;0.60;0.60;;;13.90;98.60;;;;;;4916289;29;20206;-77
2021/04/10 10:06:28;;;;;;;0.60;0.60;;;13.90;98.60;;;;;;4917121;29;20303;-77
2021/04/10 10:08:55;;;;;;;0.40;0.40;;;14.10;97.60;;;;;;4911526;29;20214;-76
2021/04/10 10:11:22;;;;;;;0.60;0.60;;;14.20;97.20;;;;;;4916035;29;20651;-76
2021/04/10 10:13:49;;;;;;;0.60;0.60;;;14.10;97.00;;;;;;4916380;29;20265;-81
2021/04/10 10:16:35;;;;;;;0.50;0.50;;;14.10;96.90;;;;;;4916704;29;20601;-82
2021/04/10 10:19:03;;;;;;;0.60;0.60;;;13.90;97.20;;;;;;4920213;29;20609;-81
2021/04/10 10:21:31;;;;;;;0.60;0.60;;;13.70;97.50;;;;;;4920370;29;20609;-79
2021/04/10 10:24:00;;;;;;;0.70;0.70;;;13.30;98.60;;;;;;4920500;29;20207;-81
2021/04/10 10:26:29;;;;;;;0.70;0.70;;;13.20;98.90;;;;;;4918015;29;20301;-80
2021/04/10 10:29:00;;;;;;;0.60;0.60;;;13.20;99.90;;;;;;4918609;29;20262;-80
2021/04/10 10:31:29;;;;;;;0.70;0.70;;;13.10;99.80;;;;;;4918382;29;20377;-79
2021/04/10 10:34:04;;;;;;;0.57;0.57;;;13.10;99.90;;;;;;4919186;29;20668;-80
2021/04/10 10:36:34;;;;;;;0.60;0.60;;;13.30;99.90;;;;;;4917394;29;20206;-78
2021/04/10 10:39:01;;;;;;;0.60;0.60;;;13.20;99.90;;;;;;4915694;29;20270;-78
2021/04/10 10:41:28;;;;;;;0.60;0.60;;;13.40;99.90;;;;;;4915587;29;20233;-80
2021/04/10 10:44:00;;;;;;;0.60;0.60;;;13.40;99.90;;;;;;4918202;29;20206;-78
2021/04/10 10:46:27;;;;;;;0.60;0.60;;;13.60;99.90;;;;;;4917800;29;20227;-79
2021/04/10 10:48:54;;;;;;;0.55;0.55;;;13.80;99.90;;;;;;4917975;29;20230;-79
2021/04/10 10:51:22;;;;;;;0.70;0.70;;;13.80;99.40;;;;;;4918117;29;20223;-80
2021/04/10 10:53:51;;;;;;;0.60;0.60;;;13.80;98.90;;;;;;4918804;29;20217;-79
2021/04/10 10:56:19;;;;;;;0.60;0.60;;;13.50;99.70;;;;;;4918547;29;20628;-80
2021/04/10 10:58:48;;;;;;;0.60;0.60;;;13.80;99.90;;;;;;4919171;29;20234;-80
2021/04/10 11:01:20;;;;;;;0.40;0.40;;;14.00;98.90;;;;;;4917690;29;20222;-79
2021/04/10 11:03:59;;;;;;;0.60;0.60;;;13.80;98.80;;;;;;4917425;29;20587;-79
2021/04/10 11:06:30;;;;;;;0.60;0.60;;;13.70;99.40;;;;;;4917043;29;20222;-78
2021/04/10 11:09:01;;;;;;;0.70;0.70;;;13.70;99.10;;;;;;4917252;29;20206;-79
2021/04/10 11:11:34;;;;;;;0.60;0.60;;;13.80;98.70;;;;;;4916736;29;20286;-78
2021/04/10 11:14:02;;;;;;;0.50;0.50;;;13.70;99.60;;;;;;4917090;29;20310;-79
2021/04/10 11:16:29;;;;;;;0.60;0.60;;;13.40;99.40;;;;;;4917111;29;20205;-80
2021/04/10 11:18:57;;;;;;;0.50;0.50;;;13.20;99.90;;;;;;4917442;29;20289;-79
2021/04/10 11:21:30;;;;;;;0.52;0.52;;;13.40;99.90;;;;;;4917458;29;20223;-78
2021/04/10 11:24:12;;;;;;;0.60;0.60;;;13.20;99.90;;;;;;4917531;29;20732;-79
2021/04/10 11:26:49;;;;;;;0.60;0.60;;;13.30;99.90;;;;;;4918017;29;20226;-78
2021/04/10 11:29:32;;;;;;;0.60;0.60;;;13.50;99.90;;;;;;4918569;29;20239;-79
2021/04/10 11:32:24;;;;;;;0.60;0.60;;;13.40;99.90;;;;;;4916305;29;20231;-77
2021/04/10 11:34:53;;;;;;;0.60;0.60;;;13.50;99.90;;;;;;4916736;29;20218;-78
2021/04/10 11:37:36;;;;;;;0.60;0.60;;;13.50;99.80;;;;;;4917781;29;20673;-79
2021/04/10 11:40:05;;;;;;;0.60;0.60;;;13.40;99.90;;;;;;4919019;29;20242;-78
2021/04/10 11:42:33;;;;;;;0.60;0.60;;;13.60;99.90;;;;;;4918239;29;20278;-80
2021/04/10 11:45:02;;;;;;;0.50;0.50;;;13.70;99.90;;;;;;4918602;29;20266;-79
2021/04/10 11:47:31;;;;;;;0.60;0.60;;;13.60;99.60;;;;;;4918443;29;20282;-79
2021/04/10 11:50:11;;;;;;;0.60;0.60;;;13.60;99.90;;;;;;4918697;29;20499;-79
2021/04/10 11:52:39;;;;;;;0.50;0.50;;;13.60;99.90;;;;;;4919896;29;20217;-79
2021/04/10 11:55:09;;;;;;;0.60;0.60;;;13.50;99.90;;;;;;4922006;29;20219;-80
2021/04/10 11:57:38;;;;;;;0.60;0.60;;;13.40;99.90;;;;;;4921654;29;20206;-80
2021/04/10 12:00:14;;;;;;;0.60;0.60;;;13.30;99.90;;;;;;4922372;29;20206;-80
2021/04/10 12:02:42;;;;;;;0.50;0.50;;;12.80;99.90;;;;;;4923405;29;20206;-78
2021/04/10 12:05:27;;;;;;;0.70;0.70;;;13.30;99.90;;;;;;4922550;29;20231;-80
2021/04/10 12:08:11;;;;;;;0.60;0.60;;;13.00;99.90;;;;;;4926564;29;20624;-80
2021/04/10 12:10:47;;;;;;;0.50;0.50;;;13.00;99.90;;;;;;4926955;29;20262;-81
2021/04/10 12:13:16;;;;;;;0.70;0.70;;;13.20;99.90;;;;;;4926158;29;20615;-75
2021/04/10 12:15:43;;;;;;;0.50;0.50;;;13.20;99.90;;;;;;4920617;29;20202;-78
2021/04/10 12:18:11;;;;;;;0.70;0.70;;;13.10;99.90;;;;;;4931257;29;20270;-77
2021/04/10 12:20:39;;;;;;;0.60;0.60;;;13.00;99.90;;;;;;4924554;29;20237;-78
2021/04/10 12:23:08;;;;;;;0.50;0.50;;;13.70;99.90;;;;;;4913965;29;20199;-78
2021/04/10 12:25:35;;;;;;;0.60;0.60;;;13.30;99.90;;;;;;4919364;29;20222;-79
2021/04/10 12:28:03;;;;;;;0.50;0.50;;;13.40;99.90;;;;;;4918100;29;20223;-74
2021/04/10 12:30:30;;;;;;;0.52;0.52;;;13.60;99.90;;;;;;4917083;29;20203;-78
2021/04/10 12:32:57;;;;;;;0.60;0.60;;;13.50;99.90;;;;;;4917432;29;20211;-76
2021/04/10 12:35:24;;;;;;;0.60;0.60;;;13.50;99.90;;;;;;4918983;29;20202;-76
2021/04/10 12:37:51;;;;;;;0.50;0.50;;;13.60;99.90;;;;;;4918566;29;20238;-78
2021/04/10 12:40:20;;;;;;;0.60;0.60;;;13.40;99.90;;;;;;4917812;29;20209;-77
2021/04/10 12:42:47;;;;;;;0.55;0.55;;;13.60;99.90;;;;;;4917623;29;20246;-76
2021/04/10 12:45:15;;;;;;;0.50;0.50;;;13.60;99.90;;;;;;4917642;29;20747;-79
2021/04/10 12:47:43;;;;;;;0.50;0.50;;;13.70;99.90;;;;;;4917987;29;20270;-78
2021/04/10 12:50:12;;;;;;;0.63;0.63;;;13.70;99.50;;;;;;4917777;29;20672;-78
2021/04/10 12:52:39;;;;;;;0.50;0.50;;;13.70;99.90;;;;;;4918218;29;20455;-78
2021/04/10 12:55:07;;;;;;;0.60;0.60;;;13.60;99.70;;;;;;4919852;29;20210;-78
2021/04/10 12:57:35;;;;;;;0.50;0.50;;;13.70;99.60;;;;;;4923224;29;20218;-76
2021/04/10 13:00:04;;;;;;;0.50;0.50;;;13.50;99.90;;;;;;4916504;29;20270;-78
2021/04/10 13:02:30;;;;;;;0.60;0.60;;;13.40;99.90;;;;;;4927334;29;20219;-77
2021/04/10 13:04:57;;;;;;;0.50;0.50;;;13.50;99.90;;;;;;4927505;29;20294;-79
2021/04/10 13:07:25;;;;;;;0.60;0.60;;;13.50;99.90;;;;;;4924188;29;20203;-78
2021/04/10 13:09:53;;;;;;;0.60;0.60;;;13.40;99.90;;;;;;4920782;29;20210;-79
2021/04/10 13:12:20;;;;;;;0.50;0.50;;;13.60;99.90;;;;;;4919810;29;20238;-77
2021/04/10 13:14:48;;;;;;;0.70;0.70;;;13.70;99.90;;;;;;4920934;29;20231;-77
2021/04/10 13:17:16;;;;;;;0.60;0.60;;;13.80;99.90;;;;;;4926317;29;20262;-77
2021/04/10 13:19:44;;;;;;;0.50;0.50;;;14.00;99.90;;;;;;4926355;29;20346;-77
2021/04/10 13:22:11;;;;;;;0.50;0.50;;;14.00;99.90;;;;;;4920676;29;20795;-78
2021/04/10 13:24:37;;;;;;;0.52;0.52;;;14.20;99.90;;;;;;4919214;29;20594;-76
2021/04/10 13:27:06;;;;;;;0.50;0.50;;;14.00;98.80;;;;;;4918863;29;20309;-77
2021/04/10 13:29:33;;;;;;;0.60;0.60;;;13.90;99.30;;;;;;4917959;29;20357;-78
2021/04/10 13:32:01;;;;;;;0.40;0.40;;;14.00;99.50;;;;;;4917229;29;20226;-77
2021/04/10 13:34:28;;;;;;;0.50;0.50;;;14.00;99.30;;;;;;4918234;29;20203;-78
2021/04/10 13:36:55;;;;;;;0.50;0.50;;;13.90;99.50;;;;;;4919453;29;20242;-76
2021/04/10 13:39:22;;;;;;;0.50;0.50;;;13.90;99.70;;;;;;4918693;29;20262;-79
2021/04/10 13:41:49;;;;;;;0.60;0.60;;;14.00;99.20;;;;;;4920288;29;20230;-79
2021/04/10 13:44:17;;;;;;;0.60;0.60;;;14.00;99.20;;;;;;4919317;29;20269;-79
2021/04/10 13:46:44;;;;;;;0.50;0.50;;;14.10;99.60;;;;;;4918847;29;20234;-77
2021/04/10 13:49:16;;;;;;;0.60;0.60;;;14.20;99.90;;;;;;4919851;29;20271;-79
2021/04/10 13:51:43;;;;;;;0.60;0.60;;;14.20;99.20;;;;;;4918160;29;20241;-80
2021/04/10 13:54:10;;;;;;;0.50;0.50;;;14.30;99.30;;;;;;4917367;29;20206;-79
2021/04/10 13:56:37;;;;;;;0.50;0.50;;;14.30;98.90;;;;;;4916824;29;20608;-80
2021/04/10 13:59:04;;;;;;;0.40;0.40;;;14.30;99.00;;;;;;4916027;29;20353;-79
2021/04/10 14:01:31;;;;;;;0.50;0.50;;;14.40;98.50;;;;;;4916214;29;20261;-77
2021/04/10 14:04:01;;;;;;;0.50;0.50;;;14.40;98.90;;;;;;4917454;29;20195;-76
2021/04/10 14:06:30;;;;;;;0.60;0.60;;;14.40;98.50;;;;;;4916541;29;20324;-77
2021/04/10 14:08:57;;;;;;;0.50;0.50;;;14.30;98.50;;;;;;4917612;29;20258;-77
2021/04/10 14:11:27;;;;;;;0.50;0.50;;;14.30;98.80;;;;;;4916747;29;20637;-77
2021/04/10 14:13:54;;;;;;;0.50;0.50;;;14.10;98.80;;;;;;4917369;29;20864;-77
2021/04/10 14:16:22;;;;;;;0.60;0.60;;;14.10;99.20;;;;;;4916021;29;20183;-77
2021/04/10 14:18:49;;;;;;;0.50;0.50;;;14.00;99.30;;;;;;4917187;29;20211;-78
2021/04/10 14:21:17;;;;;;;0.70;0.70;;;13.80;99.30;;;;;;4916830;29;20233;-78
2021/04/10 14:23:52;;;;;;;0.60;0.60;;;13.70;99.90;;;;;;4916605;29;20305;-77
2021/04/10 14:26:21;;;;;;;0.60;0.60;;;13.90;99.90;;;;;;4917304;29;20222;-77
2021/04/10 14:28:53;;;;;;;0.65;0.65;;;13.90;99.90;;;;;;4917439;29;20235;-75
2021/04/10 14:31:21;;;;;;;0.60;0.60;;;13.90;99.80;;;;;;4917426;29;20226;-75
2021/04/10 14:33:48;;;;;;;0.60;0.60;;;14.00;99.90;;;;;;4918099;29;20199;-78
2021/04/10 14:36:14;;;;;;;0.52;0.52;;;14.00;99.90;;;;;;4917375;29;20199;-78
2021/04/10 14:38:42;;;;;;;0.40;0.40;;;14.00;99.90;;;;;;4914993;29;20254;-76
2021/04/10 14:41:10;;;;;;;0.40;0.40;;;14.00;99.90;;;;;;4916514;29;20735;-76
2021/04/10 14:43:38;;;;;;;0.57;0.57;;;14.10;99.90;;;;;;4916015;29;20199;-76
2021/04/10 14:46:05;;;;;;;0.40;0.40;;;14.10;99.90;;;;;;4917973;29;20223;-78
2021/04/10 14:48:33;;;;;;;0.50;0.50;;;14.10;99.90;;;;;;4916494;29;20656;-75
2021/04/10 14:51:00;;;;;;;0.50;0.50;;;13.50;99.90;;;;;;4915409;29;20227;-75
2021/04/10 14:53:29;;;;;;;0.55;0.55;;;13.70;99.90;;;;;;4915092;29;20625;-74
2021/04/10 14:55:59;;;;;;;0.60;0.60;;;13.70;99.90;;;;;;4915678;29;20250;-76
2021/04/10 14:58:27;;;;;;;0.50;0.50;;;13.70;99.90;;;;;;4915022;29;20202;-74
2021/04/10 15:00:56;;;;;;;0.60;0.60;;;13.70;99.90;;;;;;4915921;29;20274;-75
2021/04/10 15:03:25;;;;;;;0.60;0.60;;;13.70;99.90;;;;;;4910412;29;20210;-78
2021/04/10 15:05:53;;;;;;;0.60;0.60;;;13.70;99.90;;;;;;4917993;29;20251;-78
2021/04/10 15:08:20;;;;;;;0.65;0.65;;;13.70;99.90;;;;;;4917565;29;20608;-78
2021/04/10 15:10:49;;;;;;;0.60;0.60;;;13.60;99.90;;;;;;4933633;23;20229;-77
2021/04/10 15:13:17;;;;;;;0.50;0.50;;;13.60;99.90;;;;;;4934739;29;20281;-78
2021/04/10 15:15:45;;;;;;;0.60;0.60;;;13.60;99.90;;;;;;4931172;29;20305;-77
2021/04/10 15:18:12;;;;;;;0.60;0.60;;;13.70;99.90;;;;;;4934846;29;20214;-77
2021/04/10 15:20:40;;;;;;;0.60;0.60;;;13.70;99.90;;;;;;4931004;29;20263;-77
2021/04/10 15:23:07;;;;;;;0.60;0.60;;;13.70;99.90;;;;;;4915249;29;20199;-77
2021/04/10 15:25:34;;;;;;;0.55;0.55;;;13.80;99.90;;;;;;4915200;29;20203;-77
2021/04/10 15:28:16;;;;;;;0.60;0.60;;;13.70;99.90;;;;;;4918824;29;20234;-78
2021/04/10 15:30:44;;;;;;;0.60;0.60;;;13.80;99.90;;;;;;4919452;29;20218;-77
2021/04/10 15:33:12;;;;;;;0.60;0.60;;;13.70;99.90;;;;;;4919561;29;20203;-77
2021/04/10 15:35:39;;;;;;;0.63;0.63;;;13.70;99.90;;;;;;4919773;29;20270;-77
2021/04/10 15:38:06;;;;;;;0.50;0.50;;;13.70;99.90;;;;;;4918975;29;20598;-77
2021/04/10 15:40:34;;;;;;;0.50;0.50;;;13.70;99.90;;;;;;4916112;29;20223;-77
2021/04/10 15:43:01;;;;;;;0.50;0.50;;;13.60;99.90;;;;;;4918943;29;20676;-76
2021/04/10 15:45:29;;;;;;;0.60;0.60;;;13.50;99.90;;;;;;4918139;29;20202;-77
2021/04/10 15:47:58;;;;;;;0.50;0.50;;;13.50;99.90;;;;;;4919492;29;20207;-77
2021/04/10 15:50:25;;;;;;;0.60;0.60;;;13.40;99.90;;;;;;4918609;29;20699;-75
2021/04/10 15:52:53;;;;;;;0.60;0.60;;;13.50;99.90;;;;;;4918880;29;20210;-76
2021/04/10 15:55:23;;;;;;;0.40;0.40;;;13.40;99.90;;;;;;4918929;29;20210;-78
2021/04/10 15:57:51;;;;;;;0.50;0.50;;;13.30;99.90;;;;;;4919056;29;20195;-74
2021/04/10 16:00:19;;;;;;;0.60;0.60;;;13.10;99.90;;;;;;4918499;29;20263;-74
2021/04/10 16:02:46;;;;;;;0.60;0.60;;;13.30;99.90;;;;;;4918469;29;20293;-75
2021/04/10 16:05:15;;;;;;;0.50;0.50;;;13.20;99.90;;;;;;4918400;29;20211;-74
2021/04/10 16:07:42;;;;;;;0.60;0.60;;;13.20;99.90;;;;;;4918425;29;20698;-74
2021/04/10 16:10:10;;;;;;;0.63;0.63;;;13.20;99.90;;;;;;4918407;29;20221;-76
2021/04/10 16:12:38;;;;;;;0.50;0.50;;;13.30;99.90;;;;;;4918406;29;20658;-74
2021/04/10 16:15:06;;;;;;;0.60;0.60;;;13.30;99.90;;;;;;4917971;29;20243;-75
2021/04/10 16:17:34;;;;;;;0.50;0.50;;;13.40;99.90;;;;;;4918083;29;20294;-76
2021/04/10 16:20:01;;;;;;;0.60;0.60;;;13.40;99.90;;;;;;4918245;29;20734;-79
2021/04/10 16:22:32;;;;;;;0.60;0.60;;;13.40;99.90;;;;;;4919739;29;20233;-76
2021/04/10 16:25:00;;;;;;;0.47;0.47;;;13.40;99.90;;;;;;4918361;29;20549;-77
2021/04/10 16:27:28;;;;;;;0.60;0.60;;;13.40;99.90;;;;;;4931201;23;21422;-70
2021/04/10 16:29:56;;;;;;;0.60;0.60;;;13.50;99.90;;;;;;4911561;29;20225;-72
2021/04/10 16:32:23;;;;;;;0.60;0.60;;;13.20;99.90;;;;;;4917819;29;20207;-71
2021/04/10 16:34:50;;;;;;;0.63;0.63;;;13.50;99.90;;;;;;4917264;29;20253;-72
2021/04/10 16:37:17;;;;;;;0.50;0.50;;;13.70;99.90;;;;;;4904595;29;20887;-73
2021/04/10 16:39:46;;;;;;;0.50;0.50;;;13.50;99.90;;;;;;4897541;29;20201;-74
2021/04/10 16:42:14;;;;;;;0.60;0.60;;;13.50;99.90;;;;;;4898580;29;20215;-73
2021/04/10 16:44:41;;;;;;;0.50;0.50;;;13.50;99.90;;;;;;4898079;29;20203;-74
2021/04/10 16:47:09;;;;;;;0.50;0.50;;;13.50;99.90;;;;;;4898101;29;20231;-74
2021/04/10 16:49:36;;;;;;;0.60;0.60;;;13.50;99.90;;;;;;4898386;29;20207;-74
2021/04/10 16:52:05;;;;;;;0.60;0.60;;;13.40;99.90;;;;;;4898655;29;20243;-74
2021/04/10 16:54:32;;;;;;;0.50;0.50;;;13.40;99.90;;;;;;4898678;29;20203;-74
2021/04/10 16:57:00;;;;;;;0.60;0.60;;;13.40;99.90;;;;;;4898441;29;20220;-74
2021/04/10 16:59:27;;;;;;;0.40;0.40;;;13.20;99.90;;;;;;4898545;29;20215;-74
2021/04/10 17:01:55;;;;;;;0.50;0.50;;;13.40;99.90;;;;;;4898337;29;20223;-73
2021/04/10 17:04:21;;;;;;;0.50;0.50;;;13.50;99.90;;;;;;4898101;29;20960;-75
2021/04/10 17:06:48;;;;;;;0.40;0.40;;;13.50;99.90;;;;;;4897944;29;20227;-75
2021/04/10 17:09:16;;;;;;;0.50;0.50;;;13.50;99.90;;;;;;4898300;29;20294;-75
2021/04/10 17:11:43;;;;;;;0.60;0.60;;;13.50;99.90;;;;;;4898384;29;20211;-75
2021/04/10 17:14:12;;;;;;;0.50;0.50;;;13.50;99.90;;;;;;4897352;29;20207;-74